createdAt,value
2019-01-14T00:01:22.635Z,8.72
2019-01-14T00:04:12.106Z,8.74
2019-01-14T00:07:02.196Z,8.72
2019-01-14T00:09:51.318Z,8.68
2019-01-14T00:12:40.652Z,8.65
2019-01-14T00:15:31.031Z,8.74
2019-01-14T00:18:20.498Z,8.70
2019-01-14T00:21:09.998Z,8.69
2019-01-14T00:23:59.880Z,8.52
2019-01-14T00:26:49.774Z,8.42
2019-01-14T00:29:39.770Z,8.18
2019-01-14T00:32:29.337Z,7.95
2019-01-14T00:35:19.089Z,7.80
2019-01-14T00:38:09.047Z,7.79
2019-01-14T00:40:59.332Z,7.68
2019-01-14T00:43:49.122Z,7.56
2019-01-14T00:46:39.295Z,7.51
2019-01-14T00:49:28.827Z,7.47
2019-01-14T00:52:19.106Z,7.37
2019-01-14T00:55:10.450Z,7.33
2019-01-14T00:58:00.312Z,7.26
2019-01-14T01:00:50.362Z,7.22
2019-01-14T01:03:42.729Z,7.15
2019-01-14T01:06:32.210Z,7.09
2019-01-14T01:09:22.191Z,7.03
2019-01-14T01:12:12.528Z,6.99
2019-01-14T01:15:02.089Z,6.98
2019-01-14T01:17:52.261Z,6.94
2019-01-14T01:20:42.053Z,6.90
2019-01-14T01:23:31.859Z,6.92
2019-01-14T01:26:21.894Z,6.90
2019-01-14T01:29:12.069Z,6.90
2019-01-14T01:32:02.240Z,6.91
2019-01-14T01:34:52.265Z,6.94
2019-01-14T01:37:42.130Z,6.88
2019-01-14T01:40:32.144Z,6.85
2019-01-14T01:43:21.989Z,6.90
2019-01-14T01:46:12.169Z,6.89
2019-01-14T01:49:02.284Z,6.90
2019-01-14T01:51:51.734Z,6.88
2019-01-14T01:54:42.744Z,6.91
2019-01-14T01:57:32.818Z,6.80
2019-01-14T02:00:23.906Z,6.84
2019-01-14T02:03:14.198Z,6.86
2019-01-14T02:06:03.821Z,6.88
2019-01-14T02:08:54.483Z,6.90
2019-01-14T02:11:44.366Z,6.87
2019-01-14T02:14:34.497Z,6.94
2019-01-14T02:17:24.648Z,6.94
2019-01-14T02:20:16.806Z,6.88
2019-01-14T02:23:06.875Z,6.84
2019-01-14T02:25:56.539Z,6.87
2019-01-14T02:28:46.838Z,6.82
2019-01-14T02:31:36.901Z,6.76
2019-01-14T02:34:26.044Z,6.73
2019-01-14T02:37:15.463Z,6.68
2019-01-14T02:40:07.635Z,6.59
2019-01-14T02:42:57.634Z,6.52
2019-01-14T02:45:48.780Z,6.47
2019-01-14T02:48:38.564Z,6.52
2019-01-14T02:51:28.488Z,6.47
2019-01-14T02:54:18.216Z,6.49
2019-01-14T02:57:07.837Z,6.33
2019-01-14T02:59:57.864Z,6.42
2019-01-14T03:02:47.784Z,6.46
2019-01-14T03:05:37.619Z,6.36
2019-01-14T03:08:27.824Z,6.35
2019-01-14T03:11:17.988Z,6.29
2019-01-14T03:14:07.610Z,6.31
2019-01-14T03:16:57.855Z,6.31
2019-01-14T03:19:48.117Z,6.35
2019-01-14T03:22:38.512Z,6.27
2019-01-14T03:25:28.658Z,6.29
2019-01-14T03:28:18.700Z,6.30
2019-01-14T03:31:08.627Z,6.27
2019-01-14T03:33:58.156Z,6.23
2019-01-14T03:36:48.220Z,6.18
2019-01-14T03:39:38.345Z,6.18
2019-01-14T03:42:28.368Z,6.12
2019-01-14T03:45:18.221Z,6.23
2019-01-14T03:48:08.279Z,6.15
2019-01-14T03:50:58.362Z,6.11
2019-01-14T03:53:48.245Z,6.11
2019-01-14T03:56:38.237Z,6.09
2019-01-14T03:59:28.092Z,6.13
2019-01-14T04:02:18.021Z,6.18
2019-01-14T04:05:09.718Z,6.23
2019-01-14T04:07:59.507Z,6.26
2019-01-14T04:10:49.139Z,6.19
2019-01-14T04:13:38.946Z,6.11
2019-01-14T04:16:29.003Z,6.10
2019-01-14T04:19:18.691Z,6.07
2019-01-14T04:22:08.981Z,6.01
2019-01-14T04:24:59.164Z,6.08
2019-01-14T04:27:49.052Z,6.05
2019-01-14T04:30:39.094Z,5.98
2019-01-14T04:33:29.410Z,5.97
2019-01-14T04:36:19.099Z,5.95
2019-01-14T04:39:11.034Z,6.03
2019-01-14T04:42:00.885Z,6.02
2019-01-14T04:44:51.687Z,5.94
2019-01-14T04:47:41.761Z,5.94
2019-01-14T04:50:31.322Z,5.95
2019-01-14T04:53:21.554Z,5.91
2019-01-14T04:56:11.333Z,5.76
2019-01-14T04:59:01.355Z,5.83
2019-01-14T05:01:51.169Z,5.79
2019-01-14T05:04:41.209Z,5.80
2019-01-14T05:07:30.766Z,5.81
2019-01-14T05:10:21.037Z,5.80
2019-01-14T05:13:11.098Z,5.80
2019-01-14T05:16:01.184Z,5.73
2019-01-14T05:18:51.309Z,5.79
2019-01-14T05:21:41.702Z,5.73
2019-01-14T05:24:31.643Z,5.76
2019-01-14T05:27:21.265Z,5.75
2019-01-14T05:30:12.792Z,5.68
2019-01-14T05:33:03.118Z,5.70
2019-01-14T05:35:53.307Z,5.71
2019-01-14T05:38:43.354Z,5.69
2019-01-14T05:41:33.198Z,5.59
2019-01-14T05:44:23.102Z,5.63
2019-01-14T05:47:13.142Z,5.62
2019-01-14T05:50:03.169Z,5.59
2019-01-14T05:52:53.210Z,5.61
2019-01-14T05:55:42.852Z,5.60
2019-01-14T05:58:32.964Z,5.61
2019-01-14T06:01:22.802Z,5.58
2019-01-14T06:04:12.582Z,5.58
2019-01-14T06:07:02.420Z,5.59
2019-01-14T06:09:52.574Z,5.56
2019-01-14T06:12:42.750Z,5.50
2019-01-14T06:15:32.593Z,5.54
2019-01-14T06:18:22.617Z,5.52
2019-01-14T06:21:12.397Z,5.52
2019-01-14T06:24:02.502Z,5.52
2019-01-14T06:26:52.358Z,5.53
2019-01-14T06:29:42.098Z,5.52
2019-01-14T06:32:33.203Z,5.57
2019-01-14T06:35:24.102Z,5.59
2019-01-14T06:38:14.156Z,5.62
2019-01-14T06:41:06.894Z,5.59
2019-01-14T06:43:56.673Z,5.62
2019-01-14T06:46:46.193Z,5.68
2019-01-14T06:49:36.154Z,5.75
2019-01-14T06:52:25.961Z,5.76
2019-01-14T06:55:16.652Z,5.82
2019-01-14T06:58:07.801Z,5.89
2019-01-14T07:00:58.138Z,5.93
2019-01-14T07:03:48.204Z,5.93
2019-01-14T07:06:37.950Z,5.96
2019-01-14T07:09:27.686Z,6.03
2019-01-14T07:12:17.224Z,6.08
2019-01-14T07:15:08.108Z,6.13
2019-01-14T07:17:58.002Z,6.18
2019-01-14T07:20:47.793Z,6.15
2019-01-14T07:23:37.585Z,6.26
2019-01-14T07:26:27.430Z,6.21
2019-01-14T07:29:17.743Z,6.19
2019-01-14T07:32:07.629Z,6.02
2019-01-14T07:34:57.777Z,6.11
2019-01-14T07:37:48.532Z,6.19
2019-01-14T07:40:38.025Z,6.26
2019-01-14T07:43:27.985Z,6.26
2019-01-14T07:46:17.344Z,6.26
2019-01-14T07:49:06.830Z,6.23
2019-01-14T07:51:56.801Z,6.31
2019-01-14T07:54:46.932Z,6.30
2019-01-14T07:57:37.266Z,6.36
2019-01-14T08:00:28.110Z,6.40
2019-01-14T08:03:19.260Z,6.44
2019-01-14T08:06:08.769Z,6.38
2019-01-14T08:08:58.824Z,6.44
2019-01-14T08:11:48.819Z,6.39
2019-01-14T08:14:38.959Z,6.40
2019-01-14T08:17:28.595Z,6.49
2019-01-14T08:20:18.591Z,6.35
2019-01-14T08:23:08.912Z,6.15
2019-01-14T08:25:58.694Z,6.27
2019-01-14T08:28:48.147Z,6.07
2019-01-14T08:31:38.378Z,5.94
2019-01-14T08:34:28.127Z,5.93
2019-01-14T08:37:17.926Z,6.07
2019-01-14T08:40:09.698Z,6.04
2019-01-14T08:43:00.868Z,6.03
2019-01-14T08:45:50.938Z,6.11
2019-01-14T08:48:48.665Z,6.17
2019-01-14T08:51:33.032Z,6.24
2019-01-14T08:54:22.815Z,6.28
2019-01-14T08:57:12.749Z,6.24
2019-01-14T09:00:03.521Z,6.13
2019-01-14T09:02:54.618Z,6.22
2019-01-14T09:05:44.515Z,6.31
2019-01-14T09:08:34.480Z,6.31
2019-01-14T09:11:23.618Z,6.31
2019-01-14T09:14:13.277Z,6.35
2019-01-14T09:17:06.567Z,6.26
2019-01-14T09:19:56.392Z,6.39
2019-01-14T09:22:46.758Z,6.45
2019-01-14T09:25:36.968Z,6.46
2019-01-14T09:28:27.035Z,6.49
2019-01-14T09:31:16.935Z,6.55
2019-01-14T09:34:07.748Z,6.63
2019-01-14T09:36:57.918Z,6.58
2019-01-14T09:39:48.001Z,6.58
2019-01-14T09:42:38.095Z,6.59
2019-01-14T09:45:27.873Z,6.61
2019-01-14T09:48:17.660Z,6.56
2019-01-14T09:51:07.485Z,6.51
2019-01-14T09:53:57.577Z,6.53
2019-01-14T09:56:47.887Z,6.47
2019-01-14T09:59:37.873Z,6.31
2019-01-14T10:02:27.737Z,6.25
2019-01-14T10:05:20.138Z,5.92
2019-01-14T10:08:10.888Z,5.59
2019-01-14T10:11:00.836Z,5.47
2019-01-14T10:13:51.080Z,5.40
2019-01-14T10:16:42.387Z,5.48
2019-01-14T10:19:32.385Z,5.42
2019-01-14T10:22:22.223Z,5.42
2019-01-14T10:25:12.791Z,5.34
2019-01-14T10:28:02.973Z,5.41
2019-01-14T10:30:53.536Z,5.52
2019-01-14T10:33:43.617Z,5.63
2019-01-14T10:36:33.667Z,5.70
2019-01-14T10:39:23.662Z,5.86
2019-01-14T10:42:13.596Z,5.91
2019-01-14T10:45:03.774Z,6.08
2019-01-14T10:47:53.541Z,6.23
2019-01-14T10:50:43.630Z,6.33
2019-01-14T10:53:33.437Z,6.70
2019-01-14T10:56:23.392Z,7.14
2019-01-14T10:59:13.317Z,7.90
2019-01-14T11:02:04.313Z,8.43
2019-01-14T11:04:54.761Z,8.32
2019-01-14T11:07:44.641Z,8.23
2019-01-14T11:10:34.290Z,8.09
2019-01-14T11:13:24.253Z,7.77
2019-01-14T11:16:14.400Z,7.57
2019-01-14T11:19:04.763Z,7.31
2019-01-14T11:21:54.921Z,7.17
2019-01-14T11:24:51.700Z,7.12
2019-01-14T11:27:41.465Z,7.03
2019-01-14T11:30:33.546Z,7.01
2019-01-14T11:33:23.646Z,7.02
2019-01-14T11:36:13.502Z,7.08
2019-01-14T11:39:05.589Z,6.95
2019-01-14T11:41:55.640Z,7.05
2019-01-14T11:44:45.888Z,6.94
2019-01-14T11:47:36.008Z,6.75
2019-01-14T11:50:26.078Z,6.74
2019-01-14T11:53:17.236Z,6.68
2019-01-14T11:56:07.599Z,6.74
2019-01-14T11:58:57.567Z,6.74
2019-01-14T12:01:47.330Z,6.60
2019-01-14T12:04:37.484Z,6.60
2019-01-14T12:07:27.917Z,6.60
2019-01-14T12:10:18.134Z,6.40
2019-01-14T12:13:07.673Z,6.28
2019-01-14T12:15:57.362Z,6.36
2019-01-14T12:18:46.940Z,6.51
2019-01-14T12:21:36.899Z,6.64
2019-01-14T12:24:26.685Z,6.74
2019-01-14T12:27:16.558Z,6.86
2019-01-14T12:30:19.451Z,6.89
2019-01-14T12:33:09.912Z,6.93
2019-01-14T12:35:59.638Z,6.86
2019-01-14T12:38:49.506Z,6.80
2019-01-14T12:41:39.225Z,6.87
2019-01-14T12:44:29.085Z,6.75
2019-01-14T12:47:18.815Z,6.74
2019-01-14T12:50:11.925Z,6.28
2019-01-14T12:53:01.663Z,6.17
2019-01-14T12:55:52.032Z,5.90
2019-01-14T12:58:41.628Z,5.60
2019-01-14T13:01:32.109Z,5.30
2019-01-14T13:04:22.142Z,5.14
2019-01-14T13:07:12.378Z,4.94
2019-01-14T13:10:02.194Z,4.96
2019-01-14T13:12:52.262Z,4.93
2019-01-14T13:15:42.183Z,5.00
2019-01-14T13:18:31.937Z,5.04
2019-01-14T13:21:22.209Z,5.20
2019-01-14T13:24:12.397Z,5.31
2019-01-14T13:27:03.344Z,5.42
2019-01-14T13:29:53.313Z,5.61
2019-01-14T13:32:43.434Z,5.68
2019-01-14T13:35:33.392Z,5.70
2019-01-14T13:38:23.138Z,5.92
2019-01-14T13:41:13.040Z,6.10
2019-01-14T13:44:02.913Z,6.21
2019-01-14T13:46:53.987Z,6.28
2019-01-14T13:49:46.632Z,6.24
2019-01-14T13:52:36.940Z,6.28
2019-01-14T13:55:27.549Z,6.11
2019-01-14T13:58:17.712Z,6.09
2019-01-14T14:01:07.616Z,5.84
2019-01-14T14:03:57.309Z,5.72
2019-01-14T14:06:47.412Z,5.46
2019-01-14T14:09:41.158Z,5.24
2019-01-14T14:12:28.226Z,5.03
2019-01-14T14:15:17.920Z,4.98
2019-01-14T14:18:08.061Z,4.71
2019-01-14T14:20:58.209Z,4.28
2019-01-14T14:23:48.025Z,4.07
2019-01-14T14:26:37.642Z,3.36
2019-01-14T14:29:27.608Z,2.90
2019-01-14T14:32:17.866Z,2.88
2019-01-14T14:35:08.585Z,2.73
2019-01-14T14:38:01.342Z,2.73
2019-01-14T14:40:50.631Z,2.75
2019-01-14T14:43:40.396Z,2.84
2019-01-14T14:46:30.643Z,2.91
2019-01-14T14:49:20.710Z,2.93
2019-01-14T14:52:10.779Z,3.00
2019-01-14T14:55:00.864Z,3.04
2019-01-14T14:57:51.067Z,3.13
2019-01-14T15:00:40.856Z,3.13
2019-01-14T15:03:31.625Z,3.18
2019-01-14T15:06:21.336Z,3.19
2019-01-14T15:09:11.442Z,3.24
2019-01-14T15:12:01.738Z,3.29
2019-01-14T15:14:52.136Z,3.27
2019-01-14T15:17:42.162Z,3.31
2019-01-14T15:20:32.447Z,3.35
2019-01-14T15:23:22.923Z,3.38
2019-01-14T15:26:12.981Z,3.40
2019-01-14T15:29:02.860Z,3.37
2019-01-14T15:31:52.800Z,3.38
2019-01-14T15:34:42.426Z,3.41
2019-01-14T15:37:33.113Z,3.41
2019-01-14T15:40:25.027Z,3.44
2019-01-14T15:43:14.422Z,3.44
2019-01-14T15:46:04.226Z,3.48
2019-01-14T15:48:54.252Z,3.49
2019-01-14T15:51:43.837Z,3.50
2019-01-14T15:54:34.133Z,3.50
2019-01-14T15:57:24.072Z,3.49
2019-01-14T16:00:16.548Z,3.49
2019-01-14T16:03:06.637Z,3.44
2019-01-14T16:05:56.516Z,3.43
2019-01-14T16:08:46.625Z,3.44
2019-01-14T16:11:36.616Z,3.46
2019-01-14T16:14:26.869Z,3.41
2019-01-14T16:17:16.498Z,3.41
2019-01-14T16:20:08.963Z,3.37
2019-01-14T16:22:58.968Z,3.38
2019-01-14T16:25:49.140Z,3.38
2019-01-14T16:28:40.134Z,3.36
2019-01-14T16:31:29.846Z,3.38
2019-01-14T16:34:19.594Z,3.37
2019-01-14T16:37:09.985Z,3.35
2019-01-14T16:39:59.844Z,3.36
2019-01-14T16:42:50.052Z,3.32
2019-01-14T16:45:40.222Z,3.34
2019-01-14T16:48:30.148Z,3.31
2019-01-14T16:51:19.175Z,3.33
2019-01-14T16:54:09.300Z,3.31
2019-01-14T16:56:59.273Z,3.30
2019-01-14T16:59:49.497Z,3.26
2019-01-14T17:02:39.811Z,3.30
2019-01-14T17:05:29.859Z,3.29
2019-01-14T17:08:19.917Z,3.29
2019-01-14T17:11:09.580Z,3.29
2019-01-14T17:13:59.197Z,3.29
2019-01-14T17:16:48.961Z,3.29
2019-01-14T17:19:39.118Z,3.24
2019-01-14T17:22:29.311Z,3.25
2019-01-14T17:25:19.303Z,3.25
2019-01-14T17:28:09.441Z,3.27
2019-01-14T17:30:58.938Z,3.22
2019-01-14T17:33:48.780Z,3.20
2019-01-14T17:36:38.340Z,3.20
2019-01-14T17:39:29.214Z,3.22
2019-01-14T17:42:19.981Z,3.17
2019-01-14T17:45:10.595Z,3.24
2019-01-14T17:48:00.058Z,3.19
2019-01-14T17:50:50.215Z,3.21
2019-01-14T17:53:40.418Z,3.19
2019-01-14T17:56:29.966Z,3.26
2019-01-14T17:59:20.799Z,3.25
2019-01-14T18:02:10.319Z,3.24
2019-01-14T18:04:59.852Z,3.24
2019-01-14T18:07:49.447Z,3.23
2019-01-14T18:10:40.177Z,3.24
2019-01-14T18:13:30.281Z,3.25
2019-01-14T18:16:19.710Z,3.27
2019-01-14T18:19:09.532Z,3.28
2019-01-14T18:21:59.264Z,3.30
2019-01-14T18:24:48.962Z,3.28
2019-01-14T18:27:38.414Z,3.32
2019-01-14T18:30:28.402Z,3.35
2019-01-14T18:33:21.568Z,3.31
2019-01-14T18:36:11.913Z,3.36
2019-01-14T18:39:01.700Z,3.35
2019-01-14T18:41:52.325Z,3.36
2019-01-14T18:44:42.464Z,3.41
2019-01-14T18:47:31.939Z,3.38
2019-01-14T18:50:24.128Z,3.38
2019-01-14T18:53:14.090Z,3.42
2019-01-14T18:56:03.548Z,3.46
2019-01-14T18:58:54.934Z,3.45
2019-01-14T19:01:44.817Z,3.45
2019-01-14T19:04:34.803Z,3.47
2019-01-14T19:07:25.069Z,3.48
2019-01-14T19:10:15.872Z,3.43
2019-01-14T19:13:06.046Z,3.44
2019-01-14T19:15:58.551Z,3.44
2019-01-14T19:18:48.012Z,3.46
2019-01-14T19:21:37.954Z,3.49
2019-01-14T19:24:27.790Z,3.48
2019-01-14T19:27:18.186Z,3.49
2019-01-14T19:30:12.430Z,3.49
2019-01-14T19:33:03.395Z,3.46
2019-01-14T19:35:53.676Z,3.49
2019-01-14T19:38:43.509Z,3.43
2019-01-14T19:41:32.965Z,3.39
2019-01-14T19:44:22.892Z,3.43
2019-01-14T19:47:12.736Z,3.43
2019-01-14T19:50:03.817Z,3.37
2019-01-14T19:52:55.633Z,3.38
2019-01-14T19:55:45.661Z,3.39
2019-01-14T19:58:35.463Z,3.44
2019-01-14T20:01:25.229Z,3.49
2019-01-14T20:04:15.199Z,3.48
2019-01-14T20:07:10.503Z,3.47
2019-01-14T20:09:56.113Z,3.42
2019-01-14T20:12:46.404Z,3.41
2019-01-14T20:15:36.088Z,3.46
2019-01-14T20:18:26.456Z,3.46
2019-01-14T20:21:16.457Z,3.47
2019-01-14T20:24:07.043Z,3.44
2019-01-14T20:26:57.492Z,3.41
2019-01-14T20:29:47.645Z,3.43
2019-01-14T20:32:37.432Z,3.48
2019-01-14T20:35:27.995Z,3.50
2019-01-14T20:38:17.895Z,3.51
2019-01-14T20:41:08.029Z,3.56
2019-01-14T20:44:05.047Z,3.59
2019-01-14T20:46:49.608Z,3.57
2019-01-14T20:49:39.389Z,3.61
2019-01-14T20:52:29.341Z,3.60
2019-01-14T20:55:19.393Z,3.58
2019-01-14T20:58:09.642Z,3.57
2019-01-14T21:00:59.401Z,3.56
2019-01-14T21:03:49.685Z,3.58
2019-01-14T21:06:39.649Z,3.54
2019-01-14T21:09:29.209Z,3.52
2019-01-14T21:12:19.005Z,3.49
2019-01-14T21:15:09.168Z,3.51
2019-01-14T21:17:59.427Z,3.54
2019-01-14T21:20:49.811Z,3.55
2019-01-14T21:23:39.867Z,3.54
2019-01-14T21:26:29.994Z,3.51
2019-01-14T21:29:20.169Z,3.50
2019-01-14T21:32:09.605Z,3.49
2019-01-14T21:34:59.582Z,3.48
2019-01-14T21:37:50.962Z,3.46
2019-01-14T21:40:41.268Z,3.49
2019-01-14T21:43:31.401Z,3.53
2019-01-14T21:46:20.652Z,3.60
2019-01-14T21:49:10.882Z,3.69
2019-01-14T21:52:01.689Z,3.70
2019-01-14T21:54:51.766Z,3.74
2019-01-14T21:57:42.076Z,3.86
2019-01-14T22:00:32.111Z,3.92
2019-01-14T22:03:21.811Z,3.97
2019-01-14T22:06:11.359Z,3.99
2019-01-14T22:09:01.111Z,4.03
2019-01-14T22:11:52.442Z,4.06
2019-01-14T22:14:42.301Z,4.15
2019-01-14T22:17:32.290Z,4.16
2019-01-14T22:20:28.619Z,4.24
2019-01-14T22:23:22.044Z,4.21
2019-01-14T22:26:11.880Z,4.22
2019-01-14T22:29:01.798Z,4.24
2019-01-14T22:31:51.967Z,4.29
2019-01-14T22:34:41.766Z,4.35
2019-01-14T22:37:31.549Z,4.34
2019-01-14T22:40:21.840Z,4.35
2019-01-14T22:43:11.493Z,4.40
2019-01-14T22:46:01.434Z,4.42
2019-01-14T22:48:51.361Z,4.46
2019-01-14T22:51:41.080Z,4.48
2019-01-14T22:54:30.600Z,4.53
2019-01-14T22:57:21.899Z,4.55
2019-01-14T23:01:07.282Z,4.54
2019-01-14T23:03:57.352Z,4.52
2019-01-14T23:06:46.836Z,4.53
2019-01-14T23:09:37.647Z,4.54
2019-01-14T23:12:27.870Z,4.56
2019-01-14T23:15:18.207Z,4.56
2019-01-14T23:18:08.325Z,4.57
2019-01-14T23:20:58.412Z,4.61
2019-01-14T23:23:47.955Z,4.62
2019-01-14T23:26:37.234Z,4.54
2019-01-14T23:29:26.969Z,4.61
2019-01-14T23:32:16.836Z,4.66
2019-01-14T23:35:07.491Z,4.65
2019-01-14T23:37:57.527Z,4.70
2019-01-14T23:40:47.211Z,4.67
2019-01-14T23:43:36.954Z,4.67
2019-01-14T23:46:26.640Z,4.66
2019-01-14T23:49:16.782Z,4.70
2019-01-14T23:52:06.679Z,4.67
2019-01-14T23:54:56.760Z,4.66
2019-01-14T23:57:46.998Z,4.69
